createdAt,value
2023-03-12T00:00:59.352Z,5.75
2023-03-12T00:03:36.608Z,6.30
2023-03-12T00:06:10.902Z,6.88
2023-03-12T00:08:42.863Z,4.05
2023-03-12T00:11:12.757Z,5.28
2023-03-12T00:13:44.182Z,6.00
2023-03-12T00:16:17.851Z,6.35
2023-03-12T00:18:52.629Z,6.72
2023-03-12T00:21:24.466Z,6.88
2023-03-12T00:23:53.917Z,6.70
2023-03-12T00:26:27.020Z,6.80
2023-03-12T00:31:31.024Z,7.40
2023-03-12T00:34:04.249Z,7.03
2023-03-12T00:36:33.500Z,7.68
2023-03-12T00:39:05.535Z,6.47
2023-03-12T00:44:05.836Z,6.88
2023-03-12T00:46:36.808Z,8.63
2023-03-12T00:51:39.177Z,7.20
2023-03-12T00:56:41.847Z,7.82
2023-03-12T00:59:13.165Z,8.32
2023-03-12T01:01:43.146Z,8.88
2023-03-12T01:04:14.942Z,8.77
2023-03-12T01:09:15.127Z,8.73
2023-03-12T01:11:44.293Z,8.82
2023-03-12T01:14:15.501Z,8.82
2023-03-12T01:16:44.429Z,9.52
2023-03-12T01:19:15.739Z,10.52
2023-03-12T01:21:42.667Z,10.65
2023-03-12T01:24:13.840Z,10.13
2023-03-12T01:26:44.054Z,11.48
2023-03-12T01:29:15.263Z,10.90
2023-03-12T01:31:42.183Z,11.82
2023-03-12T01:34:14.414Z,10.90
2023-03-12T01:36:45.096Z,11.57
2023-03-12T01:39:17.000Z,11.52
2023-03-12T01:41:43.932Z,11.93
2023-03-12T01:44:16.898Z,11.02
2023-03-12T01:46:46.208Z,9.18
2023-03-12T01:49:29.103Z,10.93
2023-03-12T01:52:06.141Z,9.73
2023-03-12T01:54:46.992Z,10.75
2023-03-12T01:57:45.748Z,9.77
2023-03-12T02:00:28.772Z,9.60
2023-03-12T02:03:06.102Z,10.65
2023-03-12T02:05:47.127Z,9.68
2023-03-12T02:08:19.744Z,9.60
2023-03-12T02:10:49.628Z,8.35
2023-03-12T02:13:21.268Z,9.27
2023-03-12T02:15:52.582Z,8.60
2023-03-12T02:18:23.784Z,8.50
2023-03-12T02:23:56.919Z,8.65
2023-03-12T02:26:30.157Z,8.15
2023-03-12T02:29:03.114Z,8.75
2023-03-12T02:31:45.340Z,7.97
2023-03-12T02:34:16.690Z,8.82
2023-03-12T02:36:50.573Z,7.82
2023-03-12T02:39:19.696Z,8.60
2023-03-12T02:42:02.526Z,6.55
2023-03-12T02:44:33.494Z,7.53
2023-03-12T02:47:05.581Z,7.50
2023-03-12T02:49:37.519Z,6.85
2023-03-12T02:52:08.785Z,6.53
2023-03-12T02:54:38.884Z,5.57
2023-03-12T02:57:08.140Z,6.70
2023-03-12T02:59:41.796Z,7.55
2023-03-12T03:02:12.736Z,7.07
2023-03-12T03:04:43.789Z,6.82
2023-03-12T03:07:16.937Z,7.97
2023-03-12T03:09:48.145Z,6.63
2023-03-12T03:12:17.593Z,8.00
2023-03-12T03:14:48.637Z,6.78
2023-03-12T03:17:20.393Z,6.38
2023-03-12T03:22:24.103Z,6.15
2023-03-12T03:24:56.082Z,5.70
2023-03-12T03:27:27.462Z,7.60
2023-03-12T03:29:58.360Z,6.90
2023-03-12T03:32:28.581Z,6.20
2023-03-12T03:34:59.642Z,5.32
2023-03-12T03:37:29.216Z,6.43
2023-03-12T03:40:00.460Z,6.15
2023-03-12T03:42:29.674Z,6.28
2023-03-12T03:45:00.903Z,4.82
2023-03-12T03:47:30.187Z,5.72
2023-03-12T03:50:01.246Z,5.63
2023-03-12T03:52:31.301Z,5.85
2023-03-12T03:55:00.439Z,5.40
2023-03-12T03:57:33.424Z,6.72
2023-03-12T04:00:11.539Z,5.57
2023-03-12T04:02:45.545Z,5.65
2023-03-12T04:05:21.440Z,7.95
2023-03-12T04:07:53.430Z,6.00
2023-03-12T04:10:27.453Z,5.20
2023-03-12T04:15:27.636Z,4.38
2023-03-12T04:17:59.339Z,5.88
2023-03-12T04:20:31.241Z,6.97
2023-03-12T04:23:01.376Z,7.30
2023-03-12T04:25:33.108Z,7.10
2023-03-12T04:28:02.362Z,7.07
2023-03-12T04:30:34.211Z,5.28
2023-03-12T04:35:36.604Z,6.10
2023-03-12T04:38:05.945Z,5.22
2023-03-12T04:40:38.972Z,6.20
2023-03-12T04:43:10.366Z,5.35
2023-03-12T04:45:41.401Z,6.07
2023-03-12T04:48:10.637Z,6.05
2023-03-12T04:50:41.786Z,5.78
2023-03-12T04:53:11.467Z,6.35
2023-03-12T04:55:42.778Z,5.63
2023-03-12T05:00:44.220Z,5.60
2023-03-12T05:03:13.821Z,6.72
2023-03-12T05:05:46.455Z,4.13
2023-03-12T05:08:16.150Z,6.55
2023-03-12T05:10:47.464Z,6.47
2023-03-12T05:13:22.779Z,7.32
2023-03-12T05:15:57.842Z,6.32
2023-03-12T05:18:27.054Z,6.72
2023-03-12T05:21:03.645Z,6.50
2023-03-12T05:23:35.988Z,5.68
2023-03-12T05:26:06.619Z,6.35
2023-03-12T05:28:38.211Z,5.43
2023-03-12T05:31:13.381Z,5.80
2023-03-12T05:33:46.198Z,5.57
2023-03-12T05:36:18.491Z,5.50
2023-03-12T05:38:48.006Z,5.30
2023-03-12T05:41:25.098Z,6.07
2023-03-12T05:44:00.214Z,6.70
2023-03-12T05:49:02.947Z,5.32
2023-03-12T05:51:35.901Z,5.50
2023-03-12T05:54:07.985Z,6.00
2023-03-12T05:56:39.741Z,5.43
2023-03-12T05:59:10.810Z,5.68
2023-03-12T06:01:44.029Z,5.90
2023-03-12T06:04:13.498Z,5.20
2023-03-12T06:06:42.471Z,5.65
2023-03-12T06:09:13.878Z,5.82
2023-03-12T06:11:42.874Z,5.50
2023-03-12T06:14:15.036Z,6.10
2023-03-12T06:16:46.375Z,4.68
2023-03-12T06:21:44.812Z,4.82
2023-03-12T06:24:16.642Z,5.97
2023-03-12T06:27:02.091Z,5.15
2023-03-12T06:29:31.310Z,5.00
2023-03-12T06:32:02.337Z,5.15
2023-03-12T06:34:31.525Z,5.07
2023-03-12T06:37:04.649Z,4.80
2023-03-12T06:39:35.854Z,4.35
2023-03-12T06:42:07.946Z,5.05
2023-03-12T06:44:37.276Z,4.20
2023-03-12T06:47:08.242Z,4.55
2023-03-12T06:49:40.231Z,4.07
2023-03-12T06:52:11.123Z,4.60
2023-03-12T06:54:40.313Z,3.85
2023-03-12T06:57:11.411Z,4.75
2023-03-12T07:02:14.951Z,4.05
2023-03-12T07:04:44.563Z,4.18
2023-03-12T07:07:15.577Z,4.10
2023-03-12T07:09:44.750Z,4.03
2023-03-12T07:12:15.797Z,4.18
2023-03-12T07:14:45.118Z,4.35
2023-03-12T07:17:16.164Z,4.10
2023-03-12T07:19:45.365Z,3.95
2023-03-12T07:22:16.660Z,4.78
2023-03-12T07:24:47.964Z,5.25
2023-03-12T07:27:19.708Z,3.65
2023-03-12T07:29:48.947Z,4.80
2023-03-12T07:32:17.848Z,4.78
2023-03-12T07:34:49.066Z,4.82
2023-03-12T07:37:22.382Z,4.63
2023-03-12T07:42:26.471Z,4.45
2023-03-12T07:44:59.218Z,4.40
2023-03-12T07:47:28.298Z,4.05
2023-03-12T07:49:59.579Z,4.03
2023-03-12T07:52:30.640Z,3.75
2023-03-12T07:55:02.053Z,3.63
2023-03-12T07:57:35.355Z,4.47
2023-03-12T08:02:41.999Z,3.10
2023-03-12T08:05:11.543Z,3.08
2023-03-12T08:07:42.637Z,3.20
2023-03-12T08:10:11.846Z,2.97
2023-03-12T08:12:43.129Z,2.65
2023-03-12T08:17:46.949Z,2.60
2023-03-12T08:20:17.330Z,2.58
2023-03-12T08:22:48.564Z,3.03
2023-03-12T08:25:16.139Z,1.88
2023-03-12T08:27:47.051Z,2.10
2023-03-12T08:30:16.569Z,2.65
2023-03-12T08:32:47.606Z,2.50
2023-03-12T08:37:47.892Z,2.08
2023-03-12T08:40:17.317Z,1.60
2023-03-12T08:42:48.276Z,1.88
2023-03-12T08:45:19.692Z,2.67
2023-03-12T08:47:48.641Z,3.47
2023-03-12T08:50:20.037Z,2.70
2023-03-12T08:52:49.263Z,1.90
2023-03-12T08:55:20.638Z,2.00
2023-03-12T08:57:51.556Z,2.40
2023-03-12T09:00:23.309Z,2.70
2023-03-12T09:02:53.723Z,2.80
2023-03-12T09:05:24.988Z,2.80
2023-03-12T09:07:53.921Z,2.90
2023-03-12T09:10:30.646Z,2.70
2023-03-12T09:13:00.232Z,2.42
2023-03-12T09:18:06.576Z,2.40
2023-03-12T09:23:08.943Z,1.60
2023-03-12T09:25:40.353Z,1.40
2023-03-12T09:28:11.626Z,1.80
2023-03-12T09:33:13.301Z,2.00
2023-03-12T09:35:43.222Z,1.55
2023-03-12T09:38:16.873Z,1.85
2023-03-12T09:40:49.685Z,1.70
2023-03-12T09:43:38.359Z,1.73
2023-03-12T09:46:20.573Z,1.85
2023-03-12T09:48:54.067Z,1.92
2023-03-12T09:51:43.268Z,1.50
2023-03-12T09:54:41.386Z,1.50
2023-03-12T09:57:26.216Z,1.48
2023-03-12T09:59:59.199Z,1.40
2023-03-12T10:02:57.489Z,1.90
2023-03-12T10:05:37.402Z,1.85
2023-03-12T10:08:26.863Z,2.30
2023-03-12T10:11:26.511Z,1.60
2023-03-12T10:14:32.542Z,2.20
2023-03-12T10:17:13.858Z,1.30
2023-03-12T10:20:03.108Z,1.92
2023-03-12T10:23:00.131Z,1.65
2023-03-12T10:25:41.976Z,1.67
2023-03-12T10:28:24.004Z,1.58
2023-03-12T10:31:01.301Z,1.60
2023-03-12T10:33:57.245Z,1.70
2023-03-12T10:36:37.014Z,1.77
2023-03-12T10:39:20.014Z,2.05
2023-03-12T10:41:51.624Z,1.70
2023-03-12T10:44:22.330Z,1.75
2023-03-12T10:46:57.717Z,2.10
2023-03-12T10:49:31.740Z,1.67
2023-03-12T10:52:20.744Z,1.60
2023-03-12T10:54:54.284Z,1.42
2023-03-12T10:57:42.903Z,1.90
2023-03-12T11:00:25.808Z,1.30
2023-03-12T11:03:02.043Z,1.60
2023-03-12T11:05:52.050Z,1.63
2023-03-12T11:08:29.740Z,1.40
2023-03-12T11:11:02.645Z,1.73
2023-03-12T11:13:34.122Z,1.80
2023-03-12T11:16:21.129Z,1.80
2023-03-12T11:19:04.133Z,2.00
2023-03-12T11:21:39.194Z,2.00
2023-03-12T11:24:16.565Z,1.70
2023-03-12T11:26:58.752Z,1.83
2023-03-12T11:29:38.735Z,1.77
2023-03-12T11:32:31.466Z,1.83
2023-03-12T11:35:03.362Z,1.50
2023-03-12T11:40:23.265Z,1.48
2023-03-12T11:43:39.913Z,1.58
2023-03-12T11:46:19.971Z,1.40
2023-03-12T11:49:01.053Z,1.52
2023-03-12T11:51:41.276Z,1.70
2023-03-12T11:54:26.099Z,1.70
2023-03-12T11:57:08.207Z,1.60
2023-03-12T12:00:25.586Z,1.25
2023-03-12T12:03:15.092Z,1.40
2023-03-12T12:06:00.686Z,1.30
2023-03-12T12:08:49.100Z,1.35
2023-03-12T12:11:19.939Z,1.73
2023-03-12T12:14:15.379Z,1.20
2023-03-12T12:16:52.846Z,1.60
2023-03-12T12:19:46.975Z,1.40
2023-03-12T12:22:40.006Z,1.98
2023-03-12T12:25:23.643Z,1.58
2023-03-12T12:27:58.384Z,2.03
2023-03-12T12:30:51.005Z,2.17
2023-03-12T12:33:37.966Z,1.42
2023-03-12T12:36:12.332Z,1.38
2023-03-12T12:38:51.752Z,1.65
2023-03-12T12:41:26.459Z,1.60
2023-03-12T12:44:05.054Z,1.67
2023-03-12T12:46:48.401Z,1.95
2023-03-12T12:49:33.011Z,1.83
2023-03-12T12:52:07.343Z,1.58
2023-03-12T12:54:50.556Z,1.70
2023-03-12T12:57:58.828Z,1.67
2023-03-12T13:00:47.600Z,1.52
2023-03-12T13:03:22.480Z,1.50
2023-03-12T13:06:04.122Z,1.70
2023-03-12T13:08:56.752Z,1.40
2023-03-12T13:11:43.473Z,1.83
2023-03-12T13:14:21.615Z,1.40
2023-03-12T13:17:07.389Z,1.77
2023-03-12T13:19:51.991Z,1.80
2023-03-12T13:22:44.527Z,1.80
2023-03-12T13:25:23.976Z,1.70
2023-03-12T13:28:32.335Z,1.80
2023-03-12T13:31:29.633Z,1.83
2023-03-12T13:34:11.107Z,1.50
2023-03-12T13:39:35.059Z,1.70
2023-03-12T13:42:35.954Z,1.50
2023-03-12T13:45:29.430Z,1.50
2023-03-12T13:48:06.117Z,2.13
2023-03-12T13:50:50.627Z,1.50
2023-03-12T13:53:27.276Z,1.67
2023-03-12T13:56:15.142Z,1.50
2023-03-12T13:59:08.157Z,1.52
2023-03-12T14:01:41.757Z,1.85
2023-03-12T14:04:17.457Z,1.80
2023-03-12T14:06:55.173Z,1.92
2023-03-12T14:09:26.700Z,1.92
2023-03-12T14:12:10.851Z,1.55
2023-03-12T14:15:08.432Z,2.13
2023-03-12T14:17:38.702Z,1.50
2023-03-12T14:20:18.791Z,2.00
2023-03-12T14:22:57.832Z,1.80
2023-03-12T14:25:37.557Z,1.88
2023-03-12T14:28:24.548Z,1.48
2023-03-12T14:31:05.788Z,1.90
2023-03-12T14:33:45.349Z,1.85
2023-03-12T14:36:21.199Z,1.63
2023-03-12T14:38:50.362Z,1.60
2023-03-12T14:41:36.815Z,1.73
2023-03-12T14:44:23.377Z,1.88
2023-03-12T14:47:03.330Z,1.90
2023-03-12T14:49:34.595Z,2.05
2023-03-12T14:52:04.431Z,2.33
2023-03-12T14:54:33.665Z,1.90
2023-03-12T14:59:41.009Z,1.70
2023-03-12T15:02:19.865Z,2.13
2023-03-12T15:04:54.682Z,1.90
2023-03-12T15:07:32.939Z,1.80
2023-03-12T15:10:09.804Z,1.77
2023-03-12T15:12:39.339Z,2.10
2023-03-12T15:15:19.843Z,2.13
2023-03-12T15:17:50.927Z,2.00
2023-03-12T15:20:24.970Z,1.90
2023-03-12T15:22:54.949Z,1.83
2023-03-12T15:25:29.617Z,2.35
2023-03-12T15:28:02.991Z,1.80
2023-03-12T15:30:35.201Z,1.77
2023-03-12T15:33:12.488Z,2.20
2023-03-12T15:35:44.057Z,2.05
2023-03-12T15:38:22.578Z,1.67
2023-03-12T15:40:54.038Z,2.25
2023-03-12T15:43:27.604Z,2.30
2023-03-12T15:46:09.489Z,2.40
2023-03-12T15:48:42.452Z,2.15
2023-03-12T15:51:28.132Z,2.33
2023-03-12T15:54:23.792Z,2.00
2023-03-12T15:56:53.111Z,2.15
2023-03-12T15:59:30.049Z,2.17
2023-03-12T16:01:59.069Z,2.13
2023-03-12T16:04:32.303Z,2.10
2023-03-12T16:07:04.634Z,2.17
2023-03-12T16:09:37.343Z,2.08
2023-03-12T16:12:06.705Z,2.50
2023-03-12T16:14:39.192Z,1.95
2023-03-12T16:17:14.251Z,1.75
2023-03-12T16:19:45.678Z,2.00
2023-03-12T16:22:14.762Z,2.42
2023-03-12T16:24:45.974Z,2.00
2023-03-12T16:27:23.741Z,2.50
2023-03-12T16:30:03.742Z,2.40
2023-03-12T16:32:33.028Z,2.47
2023-03-12T16:35:04.317Z,2.30
2023-03-12T16:37:35.247Z,2.30
2023-03-12T16:40:08.377Z,2.22
2023-03-12T16:42:42.625Z,2.47
2023-03-12T16:45:15.163Z,2.15
2023-03-12T16:47:47.439Z,2.53
2023-03-12T16:50:22.292Z,2.63
2023-03-12T16:52:52.086Z,2.33
2023-03-12T16:55:27.504Z,3.10
2023-03-12T16:58:00.377Z,3.22
2023-03-12T17:00:35.277Z,2.65
2023-03-12T17:03:06.487Z,4.00
2023-03-12T17:05:37.651Z,3.60
2023-03-12T17:08:06.548Z,2.80
2023-03-12T17:10:35.784Z,3.97
2023-03-12T17:13:07.142Z,3.63
2023-03-12T17:15:38.465Z,3.80
2023-03-12T17:18:07.390Z,3.53
2023-03-12T17:20:36.653Z,3.47
2023-03-12T17:23:08.619Z,4.15
2023-03-12T17:25:41.071Z,4.05
2023-03-12T17:28:12.504Z,3.95
2023-03-12T17:30:42.185Z,3.53
2023-03-12T17:33:15.905Z,3.65
2023-03-12T17:35:45.665Z,3.80
2023-03-12T17:38:16.658Z,3.90
2023-03-12T17:40:45.975Z,4.25
2023-03-12T17:43:17.072Z,4.28
2023-03-12T17:45:46.444Z,5.13
2023-03-12T17:48:18.524Z,5.20
2023-03-12T17:50:49.837Z,5.28
2023-03-12T17:53:17.810Z,6.57
2023-03-12T17:55:51.078Z,5.65
2023-03-12T17:58:21.983Z,5.47
2023-03-12T18:00:53.195Z,5.53
2023-03-12T18:03:22.201Z,5.82
2023-03-12T18:05:51.789Z,5.05
2023-03-12T18:08:23.125Z,5.50
2023-03-12T18:10:52.524Z,5.50
2023-03-12T18:13:21.663Z,5.30
2023-03-12T18:15:58.641Z,6.97
2023-03-12T18:18:27.763Z,6.72
2023-03-12T18:20:59.198Z,6.13
2023-03-12T18:23:30.353Z,6.57
2023-03-12T18:25:59.670Z,6.70
2023-03-12T18:28:30.760Z,6.68
2023-03-12T18:31:00.098Z,6.78
2023-03-12T18:33:32.764Z,6.53
2023-03-12T18:36:06.793Z,6.53
2023-03-12T18:38:35.831Z,6.05
2023-03-12T18:41:14.710Z,6.40
2023-03-12T18:43:43.747Z,5.65
2023-03-12T18:46:15.770Z,6.28
2023-03-12T18:48:44.781Z,6.57
2023-03-12T18:51:16.014Z,6.00
2023-03-12T18:53:48.096Z,6.07
2023-03-12T18:56:19.337Z,6.90
2023-03-12T18:58:50.214Z,6.63
2023-03-12T19:01:19.613Z,5.95
2023-03-12T19:03:50.739Z,5.82
2023-03-12T19:06:22.003Z,6.75
2023-03-12T19:08:51.071Z,7.13
2023-03-12T19:11:20.259Z,7.07
2023-03-12T19:13:54.466Z,7.13
2023-03-12T19:16:23.821Z,6.65
2023-03-12T19:18:54.937Z,5.90
2023-03-12T19:21:26.692Z,6.63
2023-03-12T19:23:55.704Z,6.78
2023-03-12T19:26:27.131Z,6.22
2023-03-12T19:28:58.129Z,6.15
2023-03-12T19:31:27.472Z,7.45
2023-03-12T19:33:58.475Z,6.72
2023-03-12T19:36:27.702Z,7.13
2023-03-12T19:38:59.737Z,6.28
2023-03-12T19:41:31.096Z,6.38
2023-03-12T19:44:02.065Z,6.50
2023-03-12T19:46:31.205Z,6.97
2023-03-12T19:49:02.128Z,6.60
2023-03-12T19:51:31.286Z,6.53
2023-03-12T19:54:02.502Z,7.00
2023-03-12T19:59:04.845Z,6.00
2023-03-12T20:01:34.368Z,6.43
2023-03-12T20:04:09.867Z,7.97
2023-03-12T20:06:41.273Z,6.90
2023-03-12T20:09:08.170Z,6.93
2023-03-12T20:11:39.823Z,7.05
2023-03-12T20:14:10.790Z,7.05
2023-03-12T20:16:42.197Z,7.28
2023-03-12T20:19:11.092Z,7.57
2023-03-12T20:21:42.323Z,7.63
2023-03-12T20:24:11.604Z,7.70
2023-03-12T20:29:14.292Z,8.25
2023-03-12T20:31:43.820Z,7.72
2023-03-12T20:34:16.851Z,7.72
2023-03-12T20:36:46.096Z,8.15
2023-03-12T20:39:15.249Z,8.30
2023-03-12T20:41:44.408Z,7.72
2023-03-12T20:44:15.653Z,7.63
2023-03-12T20:49:13.772Z,7.55
2023-03-12T20:51:44.610Z,8.05
2023-03-12T20:54:15.763Z,9.32
2023-03-12T20:59:19.943Z,8.52
2023-03-12T21:01:51.157Z,8.15
2023-03-12T21:04:22.195Z,8.15
2023-03-12T21:06:53.719Z,7.55
2023-03-12T21:09:23.387Z,8.85
2023-03-12T21:11:54.573Z,9.13
2023-03-12T21:14:23.538Z,7.82
2023-03-12T21:16:52.904Z,8.02
2023-03-12T21:19:24.243Z,8.05
2023-03-12T21:24:25.204Z,8.35
2023-03-12T21:26:56.426Z,8.93
2023-03-12T21:29:27.618Z,9.10
2023-03-12T21:31:57.503Z,8.30
2023-03-12T21:34:31.239Z,7.63
2023-03-12T21:37:00.626Z,8.07
2023-03-12T21:39:31.548Z,8.73
2023-03-12T21:42:00.746Z,8.40
2023-03-12T21:44:33.703Z,8.75
2023-03-12T21:47:04.075Z,10.20
2023-03-12T21:49:36.813Z,9.30
2023-03-12T21:52:08.020Z,10.13
2023-03-12T21:54:37.382Z,7.68
2023-03-12T21:57:08.623Z,10.77
2023-03-12T21:59:37.551Z,10.30
2023-03-12T22:02:09.168Z,9.18
2023-03-12T22:04:40.403Z,10.25
2023-03-12T22:09:40.521Z,9.90
2023-03-12T22:12:09.764Z,10.32
2023-03-12T22:14:40.899Z,10.15
2023-03-12T22:17:10.062Z,11.38
2023-03-12T22:19:40.962Z,11.52
2023-03-12T22:22:13.619Z,10.63
2023-03-12T22:24:44.529Z,10.90
2023-03-12T22:27:15.874Z,11.63
2023-03-12T22:29:44.850Z,10.88
2023-03-12T22:32:16.235Z,11.13
2023-03-12T22:34:45.131Z,10.45
2023-03-12T22:37:16.307Z,10.90
2023-03-12T22:39:45.229Z,11.02
2023-03-12T22:42:16.487Z,10.30
2023-03-12T22:44:43.364Z,11.52
2023-03-12T22:47:16.795Z,11.63
2023-03-12T22:49:46.905Z,10.88
2023-03-12T22:52:18.370Z,10.85
2023-03-12T22:54:49.284Z,11.55
2023-03-12T22:57:18.712Z,10.30
2023-03-12T22:59:50.210Z,10.75
2023-03-12T23:02:21.376Z,9.82
2023-03-12T23:04:50.433Z,10.38
2023-03-12T23:07:21.694Z,10.75
2023-03-12T23:09:50.636Z,10.52
2023-03-12T23:12:21.800Z,10.38
2023-03-12T23:14:50.826Z,10.20
2023-03-12T23:17:22.308Z,10.40
2023-03-12T23:19:51.180Z,10.52
2023-03-12T23:22:22.534Z,11.32
2023-03-12T23:24:51.524Z,9.57
2023-03-12T23:27:22.991Z,10.68
2023-03-12T23:29:51.922Z,10.02
2023-03-12T23:32:23.211Z,10.20
2023-03-12T23:34:52.334Z,11.05
2023-03-12T23:37:23.645Z,11.48
2023-03-12T23:39:55.033Z,10.90
2023-03-12T23:42:29.280Z,11.65
2023-03-12T23:44:58.380Z,11.05
2023-03-12T23:50:00.540Z,10.13
2023-03-12T23:52:31.711Z,11.57
2023-03-12T23:55:00.674Z,10.90
2023-03-12T23:57:31.949Z,10.48
